メインページ
METAR-TAF:

METAR-TAF

空港 :

ニアメ, ニジェール

ディオリ・アマニ国際空港

緯度: 13-29N, 経度: 002-10E, 海抜: 223m

現時点の気象観測

当レポートは57分前の23:00(UTC)に作成
北/北西の風 4kt
気温 30°C
湿度 43%
気圧 1011 hPa
視程10km以上
1,500メートル以下は雲なし、積乱雲なし

METAR: DRRN 242300Z 33004KT CAVOK 30/16 Q1011 NOSIG

時間: 00:57 (23:57 UTC)

予報

当レポートは57分前の23:00(UTC)に作成
予報は25日の 00時(UTC)から 26日の 06時(UTC)まで有効
北/北西の風 10kt
視程: 8000m
25日の 05時(UTC)から 25日の 10時(UTC)まで一時的に
視程: 3500m
高度2600ftの雲は散在している
高度3500ftの雲はほとんどない, 積乱雲.
広範な塵, 激しい雷雨, にわか雨
確率 30% :
25日の 13時(UTC)から 25日の 18時(UTC)まで一時的に
高度3300ftの雲はほとんどない, 積乱雲.
激しい雷雨

TAF: DRRN 242300Z 2500/2606 34010KT 8000 NSC TEMPO 2505/2510 3500 DU TS SHRA SCT026 FEW035CB PROB30 TEMPO 2513/2518 TS FEW033CB

4,000以上の空港の気象観測と天気予報(METAR報とTAF報)

利用可能な観測所は地図上に黄色い丸と赤い丸で示す。

丸の上にカーソルを重ねると観測所名を参照できる。

次にクリックすると気象観測と天気予報を参照できる。

マップの切り替え:黒色「×」印の緑ボタンをクリックして拡大、「-」印の緑ボタンをクリックして縮小、緑色の三角印をクリックして隣りの地図に切り替え


METAR-TAF: